sensor_id;sensor_type;location;lat;lon;timestamp;temperature;humidity
26964;DHT22;14521;48.148;-1.656;2023-02-15T00:00:29;17.80;70.10
26964;DHT22;14521;48.148;-1.656;2023-02-15T00:03:51;17.70;69.90
26964;DHT22;14521;48.148;-1.656;2023-02-15T00:07:16;17.80;70.00
26964;DHT22;14521;48.148;-1.656;2023-02-15T00:10:38;17.70;69.90
26964;DHT22;14521;48.148;-1.656;2023-02-15T00:14:01;17.70;69.80
26964;DHT22;14521;48.148;-1.656;2023-02-15T00:17:23;17.70;69.80
26964;DHT22;14521;48.148;-1.656;2023-02-15T00:20:45;17.70;69.90
26964;DHT22;14521;48.148;-1.656;2023-02-15T00:24:09;17.70;69.80
26964;DHT22;14521;48.148;-1.656;2023-02-15T00:27:33;17.70;69.90
26964;DHT22;14521;48.148;-1.656;2023-02-15T00:31:23;17.70;69.80
26964;DHT22;14521;48.148;-1.656;2023-02-15T00:34:46;17.70;69.70
26964;DHT22;14521;48.148;-1.656;2023-02-15T00:38:08;17.70;69.60
26964;DHT22;14521;48.148;-1.656;2023-02-15T00:41:31;17.70;69.50
26964;DHT22;14521;48.148;-1.656;2023-02-15T00:44:54;17.70;69.60
26964;DHT22;14521;48.148;-1.656;2023-02-15T00:48:16;17.70;69.60
26964;DHT22;14521;48.148;-1.656;2023-02-15T00:51:38;17.70;69.50
26964;DHT22;14521;48.148;-1.656;2023-02-15T00:55:01;17.70;69.50
26964;DHT22;14521;48.148;-1.656;2023-02-15T00:58:24;17.60;69.50
26964;DHT22;14521;48.148;-1.656;2023-02-15T01:01:46;17.60;69.50
26964;DHT22;14521;48.148;-1.656;2023-02-15T01:05:09;17.60;69.50
26964;DHT22;14521;48.148;-1.656;2023-02-15T01:08:32;17.60;69.50
26964;DHT22;14521;48.148;-1.656;2023-02-15T01:11:54;17.60;69.50
26964;DHT22;14521;48.148;-1.656;2023-02-15T01:15:16;17.60;69.40
26964;DHT22;14521;48.148;-1.656;2023-02-15T01:18:39;17.60;69.50
26964;DHT22;14521;48.148;-1.656;2023-02-15T01:22:02;17.60;69.40
26964;DHT22;14521;48.148;-1.656;2023-02-15T01:25:26;17.60;69.40
26964;DHT22;14521;48.148;-1.656;2023-02-15T01:28:49;17.60;69.40
26964;DHT22;14521;48.148;-1.656;2023-02-15T01:32:12;17.60;69.30
26964;DHT22;14521;48.148;-1.656;2023-02-15T01:35:37;17.60;69.30
26964;DHT22;14521;48.148;-1.656;2023-02-15T01:39:00;17.50;69.40
26964;DHT22;14521;48.148;-1.656;2023-02-15T01:42:26;17.60;69.40
26964;DHT22;14521;48.148;-1.656;2023-02-15T01:45:49;17.60;69.30
26964;DHT22;14521;48.148;-1.656;2023-02-15T01:49:15;17.60;69.20
26964;DHT22;14521;48.148;-1.656;2023-02-15T01:52:43;17.60;69.10
26964;DHT22;14521;48.148;-1.656;2023-02-15T01:56:13;17.60;69.10
26964;DHT22;14521;48.148;-1.656;2023-02-15T01:59:39;17.60;69.10
26964;DHT22;14521;48.148;-1.656;2023-02-15T02:03:03;17.60;69.10
26964;DHT22;14521;48.148;-1.656;2023-02-15T02:06:26;17.50;69.00
26964;DHT22;14521;48.148;-1.656;2023-02-15T02:09:49;17.50;68.90
26964;DHT22;14521;48.148;-1.656;2023-02-15T02:13:11;17.50;68.90
26964;DHT22;14521;48.148;-1.656;2023-02-15T02:16:52;17.50;69.00
26964;DHT22;14521;48.148;-1.656;2023-02-15T02:20:43;17.50;68.90
26964;DHT22;14521;48.148;-1.656;2023-02-15T02:31:43;17.50;68.90
26964;DHT22;14521;48.148;-1.656;2023-02-15T02:35:11;17.50;68.90
26964;DHT22;14521;48.148;-1.656;2023-02-15T02:38:55;17.50;68.90
26964;DHT22;14521;48.148;-1.656;2023-02-15T02:42:30;17.50;68.90
26964;DHT22;14521;48.148;-1.656;2023-02-15T02:46:00;17.50;68.90
26964;DHT22;14521;48.148;-1.656;2023-02-15T02:52:57;17.40;69.00
26964;DHT22;14521;48.148;-1.656;2023-02-15T02:56:29;17.40;68.90
26964;DHT22;14521;48.148;-1.656;2023-02-15T02:59:54;17.40;68.90
26964;DHT22;14521;48.148;-1.656;2023-02-15T03:03:30;17.40;68.90
26964;DHT22;14521;48.148;-1.656;2023-02-15T03:06:58;17.40;68.90
26964;DHT22;14521;48.148;-1.656;2023-02-15T03:10:22;17.40;68.90
26964;DHT22;14521;48.148;-1.656;2023-02-15T03:13:48;17.40;68.90
26964;DHT22;14521;48.148;-1.656;2023-02-15T03:17:12;17.40;69.00
26964;DHT22;14521;48.148;-1.656;2023-02-15T03:20:36;17.40;68.70
26964;DHT22;14521;48.148;-1.656;2023-02-15T03:24:13;17.40;68.70
26964;DHT22;14521;48.148;-1.656;2023-02-15T03:27:42;17.30;68.60
26964;DHT22;14521;48.148;-1.656;2023-02-15T03:31:07;17.30;68.60
26964;DHT22;14521;48.148;-1.656;2023-02-15T03:34:30;17.30;68.50
26964;DHT22;14521;48.148;-1.656;2023-02-15T03:38:00;17.30;68.50
26964;DHT22;14521;48.148;-1.656;2023-02-15T03:41:26;17.40;68.40
26964;DHT22;14521;48.148;-1.656;2023-02-15T03:44:56;17.40;68.30
26964;DHT22;14521;48.148;-1.656;2023-02-15T03:48:49;17.40;68.20
26964;DHT22;14521;48.148;-1.656;2023-02-15T03:52:10;17.40;68.20
26964;DHT22;14521;48.148;-1.656;2023-02-15T03:55:34;17.40;68.10
26964;DHT22;14521;48.148;-1.656;2023-02-15T03:58:56;17.40;68.00
26964;DHT22;14521;48.148;-1.656;2023-02-15T04:03:07;17.40;67.90
26964;DHT22;14521;48.148;-1.656;2023-02-15T04:06:31;17.40;67.90
26964;DHT22;14521;48.148;-1.656;2023-02-15T04:09:53;17.40;67.70
26964;DHT22;14521;48.148;-1.656;2023-02-15T04:13:34;17.50;67.70
26964;DHT22;14521;48.148;-1.656;2023-02-15T04:16:56;17.50;67.60
26964;DHT22;14521;48.148;-1.656;2023-02-15T04:20:18;17.50;67.60
26964;DHT22;14521;48.148;-1.656;2023-02-15T04:23:59;17.50;67.50
26964;DHT22;14521;48.148;-1.656;2023-02-15T04:27:51;17.50;67.50
26964;DHT22;14521;48.148;-1.656;2023-02-15T04:31:14;17.50;67.40
26964;DHT22;14521;48.148;-1.656;2023-02-15T04:34:37;17.50;67.40
26964;DHT22;14521;48.148;-1.656;2023-02-15T04:37:59;17.50;67.40
26964;DHT22;14521;48.148;-1.656;2023-02-15T04:41:21;17.50;67.40
26964;DHT22;14521;48.148;-1.656;2023-02-15T04:44:44;17.50;67.30
26964;DHT22;14521;48.148;-1.656;2023-02-15T04:48:06;17.50;67.30
26964;DHT22;14521;48.148;-1.656;2023-02-15T04:51:28;17.50;67.30
26964;DHT22;14521;48.148;-1.656;2023-02-15T04:54:51;17.50;67.20
26964;DHT22;14521;48.148;-1.656;2023-02-15T04:58:13;17.50;67.30
26964;DHT22;14521;48.148;-1.656;2023-02-15T05:01:35;17.50;67.20
26964;DHT22;14521;48.148;-1.656;2023-02-15T05:04:58;17.40;67.10
26964;DHT22;14521;48.148;-1.656;2023-02-15T05:08:20;17.40;67.10
26964;DHT22;14521;48.148;-1.656;2023-02-15T05:11:42;17.50;67.10
26964;DHT22;14521;48.148;-1.656;2023-02-15T05:15:05;17.50;67.10
26964;DHT22;14521;48.148;-1.656;2023-02-15T05:18:27;17.50;67.00
26964;DHT22;14521;48.148;-1.656;2023-02-15T05:21:49;17.50;66.90
26964;DHT22;14521;48.148;-1.656;2023-02-15T05:25:12;17.60;66.90
26964;DHT22;14521;48.148;-1.656;2023-02-15T05:28:53;17.70;66.80
26964;DHT22;14521;48.148;-1.656;2023-02-15T05:32:15;17.70;66.70
26964;DHT22;14521;48.148;-1.656;2023-02-15T05:35:37;17.80;66.70
26964;DHT22;14521;48.148;-1.656;2023-02-15T05:39:00;17.80;66.70
26964;DHT22;14521;48.148;-1.656;2023-02-15T05:42:22;17.80;66.50
26964;DHT22;14521;48.148;-1.656;2023-02-15T05:45:49;17.90;66.50
26964;DHT22;14521;48.148;-1.656;2023-02-15T05:49:11;17.90;66.30
26964;DHT22;14521;48.148;-1.656;2023-02-15T05:52:34;17.90;66.30
26964;DHT22;14521;48.148;-1.656;2023-02-15T05:55:56;18.00;67.10
26964;DHT22;14521;48.148;-1.656;2023-02-15T05:59:22;18.00;66.30
26964;DHT22;14521;48.148;-1.656;2023-02-15T06:02:44;18.00;66.20
26964;DHT22;14521;48.148;-1.656;2023-02-15T06:06:07;18.00;66.20
26964;DHT22;14521;48.148;-1.656;2023-02-15T06:09:30;18.00;66.10
26964;DHT22;14521;48.148;-1.656;2023-02-15T06:12:52;18.10;66.10
26964;DHT22;14521;48.148;-1.656;2023-02-15T06:16:14;18.10;66.10
26964;DHT22;14521;48.148;-1.656;2023-02-15T06:19:38;18.10;66.10
26964;DHT22;14521;48.148;-1.656;2023-02-15T06:23:00;18.10;66.10
26964;DHT22;14521;48.148;-1.656;2023-02-15T06:26:23;18.10;66.10
26964;DHT22;14521;48.148;-1.656;2023-02-15T06:29:45;18.10;66.10
26964;DHT22;14521;48.148;-1.656;2023-02-15T06:33:07;18.10;66.10
26964;DHT22;14521;48.148;-1.656;2023-02-15T06:36:30;18.10;66.00
26964;DHT22;14521;48.148;-1.656;2023-02-15T06:39:53;18.10;66.00
26964;DHT22;14521;48.148;-1.656;2023-02-15T06:43:16;18.10;65.90
26964;DHT22;14521;48.148;-1.656;2023-02-15T06:46:38;18.10;65.80
26964;DHT22;14521;48.148;-1.656;2023-02-15T06:50:00;18.10;65.80
26964;DHT22;14521;48.148;-1.656;2023-02-15T06:53:23;18.10;65.80
26964;DHT22;14521;48.148;-1.656;2023-02-15T06:56:45;18.10;65.80
26964;DHT22;14521;48.148;-1.656;2023-02-15T07:00:08;18.20;65.80
26964;DHT22;14521;48.148;-1.656;2023-02-15T07:03:30;18.20;65.80
26964;DHT22;14521;48.148;-1.656;2023-02-15T07:06:53;18.20;65.70
26964;DHT22;14521;48.148;-1.656;2023-02-15T07:10:15;18.20;65.70
26964;DHT22;14521;48.148;-1.656;2023-02-15T07:13:38;18.20;65.60
26964;DHT22;14521;48.148;-1.656;2023-02-15T07:17:00;18.20;65.60
26964;DHT22;14521;48.148;-1.656;2023-02-15T07:20:23;18.10;65.50
26964;DHT22;14521;48.148;-1.656;2023-02-15T07:23:46;18.10;65.50
26964;DHT22;14521;48.148;-1.656;2023-02-15T07:27:08;18.10;66.10
26964;DHT22;14521;48.148;-1.656;2023-02-15T07:30:30;18.10;65.70
26964;DHT22;14521;48.148;-1.656;2023-02-15T07:33:53;18.10;65.60
26964;DHT22;14521;48.148;-1.656;2023-02-15T07:37:15;18.10;65.60
26964;DHT22;14521;48.148;-1.656;2023-02-15T07:40:37;18.10;65.60
26964;DHT22;14521;48.148;-1.656;2023-02-15T07:44:00;18.10;65.60
26964;DHT22;14521;48.148;-1.656;2023-02-15T07:47:22;18.10;65.60
26964;DHT22;14521;48.148;-1.656;2023-02-15T07:50:44;18.10;65.60
26964;DHT22;14521;48.148;-1.656;2023-02-15T07:54:07;18.10;65.60
26964;DHT22;14521;48.148;-1.656;2023-02-15T07:57:29;18.10;65.60
26964;DHT22;14521;48.148;-1.656;2023-02-15T08:00:51;18.00;65.60
26964;DHT22;14521;48.148;-1.656;2023-02-15T08:04:20;18.00;65.60
26964;DHT22;14521;48.148;-1.656;2023-02-15T08:07:42;18.00;65.70
26964;DHT22;14521;48.148;-1.656;2023-02-15T08:11:27;18.00;65.90
26964;DHT22;14521;48.148;-1.656;2023-02-15T08:14:59;18.00;66.10
26964;DHT22;14521;48.148;-1.656;2023-02-15T08:18:21;18.00;67.00
26964;DHT22;14521;48.148;-1.656;2023-02-15T08:21:47;18.00;67.80
26964;DHT22;14521;48.148;-1.656;2023-02-15T08:25:09;18.00;68.20
26964;DHT22;14521;48.148;-1.656;2023-02-15T08:28:31;18.00;68.30
26964;DHT22;14521;48.148;-1.656;2023-02-15T08:32:06;18.00;68.50
26964;DHT22;14521;48.148;-1.656;2023-02-15T08:35:28;18.00;68.50
26964;DHT22;14521;48.148;-1.656;2023-02-15T08:38:51;18.00;68.70
26964;DHT22;14521;48.148;-1.656;2023-02-15T08:42:13;18.00;68.80
26964;DHT22;14521;48.148;-1.656;2023-02-15T08:45:36;18.00;68.80
26964;DHT22;14521;48.148;-1.656;2023-02-15T08:48:58;18.00;68.80
26964;DHT22;14521;48.148;-1.656;2023-02-15T08:52:21;18.00;68.80
26964;DHT22;14521;48.148;-1.656;2023-02-15T08:55:43;17.90;68.80
26964;DHT22;14521;48.148;-1.656;2023-02-15T08:59:07;17.90;68.80
26964;DHT22;14521;48.148;-1.656;2023-02-15T09:02:33;17.90;68.80
26964;DHT22;14521;48.148;-1.656;2023-02-15T09:06:00;17.90;68.90
26964;DHT22;14521;48.148;-1.656;2023-02-15T09:09:22;17.90;68.90
26964;DHT22;14521;48.148;-1.656;2023-02-15T09:12:45;17.90;68.90
26964;DHT22;14521;48.148;-1.656;2023-02-15T09:16:08;17.90;69.00
26964;DHT22;14521;48.148;-1.656;2023-02-15T09:19:31;17.90;69.10
26964;DHT22;14521;48.148;-1.656;2023-02-15T09:22:53;17.90;68.90
26964;DHT22;14521;48.148;-1.656;2023-02-15T09:26:21;17.90;69.00
26964;DHT22;14521;48.148;-1.656;2023-02-15T09:29:43;17.80;69.10
26964;DHT22;14521;48.148;-1.656;2023-02-15T09:33:06;17.90;69.20
26964;DHT22;14521;48.148;-1.656;2023-02-15T09:36:32;17.90;70.10
26964;DHT22;14521;48.148;-1.656;2023-02-15T09:39:54;17.90;69.30
26964;DHT22;14521;48.148;-1.656;2023-02-15T10:02:35;17.80;69.40
26964;DHT22;14521;48.148;-1.656;2023-02-15T10:28:09;18.00;68.80
26964;DHT22;14521;48.148;-1.656;2023-02-15T10:31:51;18.00;68.90
26964;DHT22;14521;48.148;-1.656;2023-02-15T10:35:40;18.00;69.60
26964;DHT22;14521;48.148;-1.656;2023-02-15T10:39:34;18.00;69.80
26964;DHT22;14521;48.148;-1.656;2023-02-15T10:43:35;18.10;69.80
26964;DHT22;14521;48.148;-1.656;2023-02-15T10:50:48;18.10;70.00
26964;DHT22;14521;48.148;-1.656;2023-02-15T11:08:59;18.10;71.50
26964;DHT22;14521;48.148;-1.656;2023-02-15T11:12:24;18.10;71.60
26964;DHT22;14521;48.148;-1.656;2023-02-15T11:15:56;18.10;70.40
26964;DHT22;14521;48.148;-1.656;2023-02-15T11:19:21;18.10;70.70
26964;DHT22;14521;48.148;-1.656;2023-02-15T11:22:48;18.10;70.40
26964;DHT22;14521;48.148;-1.656;2023-02-15T11:26:44;18.10;70.40
26964;DHT22;14521;48.148;-1.656;2023-02-15T11:30:14;18.10;70.70
26964;DHT22;14521;48.148;-1.656;2023-02-15T11:33:41;18.10;70.50
26964;DHT22;14521;48.148;-1.656;2023-02-15T11:37:17;18.10;70.30
26964;DHT22;14521;48.148;-1.656;2023-02-15T11:41:03;18.10;70.10
26964;DHT22;14521;48.148;-1.656;2023-02-15T11:44:35;18.10;69.80
26964;DHT22;14521;48.148;-1.656;2023-02-15T11:47:59;18.10;69.70
26964;DHT22;14521;48.148;-1.656;2023-02-15T11:51:23;18.10;69.70
26964;DHT22;14521;48.148;-1.656;2023-02-15T11:54:48;18.10;69.30
26964;DHT22;14521;48.148;-1.656;2023-02-15T12:01:46;18.10;69.40
26964;DHT22;14521;48.148;-1.656;2023-02-15T12:05:16;18.10;69.40
26964;DHT22;14521;48.148;-1.656;2023-02-15T12:08:44;18.10;69.40
26964;DHT22;14521;48.148;-1.656;2023-02-15T12:15:48;18.10;69.40
26964;DHT22;14521;48.148;-1.656;2023-02-15T12:22:51;18.10;69.20
26964;DHT22;14521;48.148;-1.656;2023-02-15T12:26:14;18.10;69.20
26964;DHT22;14521;48.148;-1.656;2023-02-15T12:29:42;18.20;69.40
26964;DHT22;14521;48.148;-1.656;2023-02-15T12:33:15;18.20;69.20
26964;DHT22;14521;48.148;-1.656;2023-02-15T12:36:50;18.20;69.20
26964;DHT22;14521;48.148;-1.656;2023-02-15T12:40:25;18.20;68.90
26964;DHT22;14521;48.148;-1.656;2023-02-15T12:47:35;18.20;69.50
26964;DHT22;14521;48.148;-1.656;2023-02-15T12:51:07;18.20;69.70
26964;DHT22;14521;48.148;-1.656;2023-02-15T12:58:32;18.30;69.70
26964;DHT22;14521;48.148;-1.656;2023-02-15T13:01:54;18.20;69.90
26964;DHT22;14521;48.148;-1.656;2023-02-15T13:12:36;18.30;71.40
26964;DHT22;14521;48.148;-1.656;2023-02-15T13:16:04;18.30;71.90
26964;DHT22;14521;48.148;-1.656;2023-02-15T13:23:01;18.30;73.50
26964;DHT22;14521;48.148;-1.656;2023-02-15T13:26:30;18.20;73.40
26964;DHT22;14521;48.148;-1.656;2023-02-15T13:29:58;18.20;73.30
26964;DHT22;14521;48.148;-1.656;2023-02-15T13:33:31;18.30;72.60
26964;DHT22;14521;48.148;-1.656;2023-02-15T13:40:55;18.40;73.40
26964;DHT22;14521;48.148;-1.656;2023-02-15T13:48:37;18.40;73.00
26964;DHT22;14521;48.148;-1.656;2023-02-15T13:55:51;18.30;72.50
26964;DHT22;14521;48.148;-1.656;2023-02-15T14:10:23;18.40;73.70
26964;DHT22;14521;48.148;-1.656;2023-02-15T14:18:11;18.50;74.30
26964;DHT22;14521;48.148;-1.656;2023-02-15T14:21:47;18.50;74.90
26964;DHT22;14521;48.148;-1.656;2023-02-15T14:25:25;18.50;74.70
26964;DHT22;14521;48.148;-1.656;2023-02-15T14:32:36;18.50;75.20
26964;DHT22;14521;48.148;-1.656;2023-02-15T14:36:01;18.50;75.30
26964;DHT22;14521;48.148;-1.656;2023-02-15T14:47:25;18.50;75.20
26964;DHT22;14521;48.148;-1.656;2023-02-15T14:50:50;18.50;75.00
26964;DHT22;14521;48.148;-1.656;2023-02-15T14:57:58;18.50;74.70
26964;DHT22;14521;48.148;-1.656;2023-02-15T15:01:30;18.50;74.70
26964;DHT22;14521;48.148;-1.656;2023-02-15T15:05:01;18.50;74.70
26964;DHT22;14521;48.148;-1.656;2023-02-15T15:08:37;18.50;74.70
26964;DHT22;14521;48.148;-1.656;2023-02-15T15:15:46;18.50;74.40
26964;DHT22;14521;48.148;-1.656;2023-02-15T15:19:12;18.50;74.50
26964;DHT22;14521;48.148;-1.656;2023-02-15T15:26:36;18.50;74.40
26964;DHT22;14521;48.148;-1.656;2023-02-15T15:41:42;18.50;74.40
26964;DHT22;14521;48.148;-1.656;2023-02-15T15:48:38;18.50;74.40
26964;DHT22;14521;48.148;-1.656;2023-02-15T15:52:02;18.50;74.40
26964;DHT22;14521;48.148;-1.656;2023-02-15T15:55:27;18.50;74.70
26964;DHT22;14521;48.148;-1.656;2023-02-15T15:58:58;18.50;74.50
26964;DHT22;14521;48.148;-1.656;2023-02-15T16:02:21;18.50;74.60
26964;DHT22;14521;48.148;-1.656;2023-02-15T16:05:45;18.50;74.50
26964;DHT22;14521;48.148;-1.656;2023-02-15T16:09:22;18.50;74.50
26964;DHT22;14521;48.148;-1.656;2023-02-15T16:12:46;18.50;74.50
26964;DHT22;14521;48.148;-1.656;2023-02-15T16:16:12;18.50;74.50
26964;DHT22;14521;48.148;-1.656;2023-02-15T16:19:36;18.50;74.70
26964;DHT22;14521;48.148;-1.656;2023-02-15T16:29:49;18.50;74.70
26964;DHT22;14521;48.148;-1.656;2023-02-15T16:33:14;18.50;74.70
26964;DHT22;14521;48.148;-1.656;2023-02-15T16:36:37;18.50;74.80
26964;DHT22;14521;48.148;-1.656;2023-02-15T16:39:59;18.40;74.70
26964;DHT22;14521;48.148;-1.656;2023-02-15T16:43:25;18.50;74.80
26964;DHT22;14521;48.148;-1.656;2023-02-15T16:46:51;18.40;74.90
26964;DHT22;14521;48.148;-1.656;2023-02-15T16:50:22;18.40;75.00
26964;DHT22;14521;48.148;-1.656;2023-02-15T16:53:47;18.40;74.80
26964;DHT22;14521;48.148;-1.656;2023-02-15T16:57:19;18.40;74.70
26964;DHT22;14521;48.148;-1.656;2023-02-15T17:00:42;18.40;74.70
26964;DHT22;14521;48.148;-1.656;2023-02-15T17:07:52;18.40;75.00
26964;DHT22;14521;48.148;-1.656;2023-02-15T17:11:45;18.40;75.00
26964;DHT22;14521;48.148;-1.656;2023-02-15T17:15:25;18.40;75.20
26964;DHT22;14521;48.148;-1.656;2023-02-15T17:18:48;18.40;75.00
26964;DHT22;14521;48.148;-1.656;2023-02-15T17:22:17;18.40;75.30
26964;DHT22;14521;48.148;-1.656;2023-02-15T17:25:40;18.30;75.30
26964;DHT22;14521;48.148;-1.656;2023-02-15T17:33:01;18.30;75.30
26964;DHT22;14521;48.148;-1.656;2023-02-15T17:36:26;18.30;75.30
26964;DHT22;14521;48.148;-1.656;2023-02-15T17:39:50;18.30;75.20
26964;DHT22;14521;48.148;-1.656;2023-02-15T17:43:13;18.30;75.30
26964;DHT22;14521;48.148;-1.656;2023-02-15T17:46:36;18.30;75.60
26964;DHT22;14521;48.148;-1.656;2023-02-15T17:50:02;18.30;75.60
26964;DHT22;14521;48.148;-1.656;2023-02-15T17:53:25;18.30;75.60
26964;DHT22;14521;48.148;-1.656;2023-02-15T17:56:47;18.30;75.70
26964;DHT22;14521;48.148;-1.656;2023-02-15T18:00:13;18.30;75.80
26964;DHT22;14521;48.148;-1.656;2023-02-15T18:03:55;18.30;75.80
26964;DHT22;14521;48.148;-1.656;2023-02-15T18:07:36;18.30;75.60
26964;DHT22;14521;48.148;-1.656;2023-02-15T18:11:17;18.30;75.60
26964;DHT22;14521;48.148;-1.656;2023-02-15T18:14:59;18.20;75.30
26964;DHT22;14521;48.148;-1.656;2023-02-15T18:18:22;18.30;75.30
26964;DHT22;14521;48.148;-1.656;2023-02-15T18:21:45;18.30;75.20
26964;DHT22;14521;48.148;-1.656;2023-02-15T18:25:17;18.40;75.20
26964;DHT22;14521;48.148;-1.656;2023-02-15T18:28:39;18.40;75.20
26964;DHT22;14521;48.148;-1.656;2023-02-15T18:32:03;18.40;75.10
26964;DHT22;14521;48.148;-1.656;2023-02-15T18:35:30;18.40;75.10
26964;DHT22;14521;48.148;-1.656;2023-02-15T18:38:54;18.50;75.10
26964;DHT22;14521;48.148;-1.656;2023-02-15T18:42:21;18.50;75.20
26964;DHT22;14521;48.148;-1.656;2023-02-15T18:45:45;18.60;75.20
26964;DHT22;14521;48.148;-1.656;2023-02-15T18:49:07;18.60;74.80
26964;DHT22;14521;48.148;-1.656;2023-02-15T18:52:33;18.60;75.30
26964;DHT22;14521;48.148;-1.656;2023-02-15T18:55:57;18.70;75.40
26964;DHT22;14521;48.148;-1.656;2023-02-15T18:59:21;18.70;75.70
26964;DHT22;14521;48.148;-1.656;2023-02-15T19:02:44;18.70;75.70
26964;DHT22;14521;48.148;-1.656;2023-02-15T19:06:10;18.70;75.90
26964;DHT22;14521;48.148;-1.656;2023-02-15T19:09:33;18.80;75.40
26964;DHT22;14521;48.148;-1.656;2023-02-15T19:12:55;18.70;75.50
26964;DHT22;14521;48.148;-1.656;2023-02-15T19:16:29;18.80;75.50
26964;DHT22;14521;48.148;-1.656;2023-02-15T19:19:52;18.80;75.50
26964;DHT22;14521;48.148;-1.656;2023-02-15T19:23:18;18.80;75.60
26964;DHT22;14521;48.148;-1.656;2023-02-15T19:26:42;18.80;75.50
26964;DHT22;14521;48.148;-1.656;2023-02-15T19:30:17;18.80;75.50
26964;DHT22;14521;48.148;-1.656;2023-02-15T19:33:40;18.80;75.50
26964;DHT22;14521;48.148;-1.656;2023-02-15T19:37:05;18.70;75.50
26964;DHT22;14521;48.148;-1.656;2023-02-15T19:40:31;18.80;75.50
26964;DHT22;14521;48.148;-1.656;2023-02-15T19:43:54;18.80;75.60
26964;DHT22;14521;48.148;-1.656;2023-02-15T19:47:18;18.70;75.60
26964;DHT22;14521;48.148;-1.656;2023-02-15T19:50:41;18.70;75.70
26964;DHT22;14521;48.148;-1.656;2023-02-15T19:54:46;18.70;75.70
26964;DHT22;14521;48.148;-1.656;2023-02-15T19:58:11;18.70;75.70
26964;DHT22;14521;48.148;-1.656;2023-02-15T20:01:34;18.70;75.70
26964;DHT22;14521;48.148;-1.656;2023-02-15T20:04:57;18.70;75.70
26964;DHT22;14521;48.148;-1.656;2023-02-15T20:08:21;18.70;75.70
26964;DHT22;14521;48.148;-1.656;2023-02-15T20:11:43;18.70;75.70
26964;DHT22;14521;48.148;-1.656;2023-02-15T20:18:38;18.70;76.00
26964;DHT22;14521;48.148;-1.656;2023-02-15T20:22:00;18.70;76.10
26964;DHT22;14521;48.148;-1.656;2023-02-15T20:25:26;18.70;76.30
26964;DHT22;14521;48.148;-1.656;2023-02-15T20:28:49;18.60;76.20
26964;DHT22;14521;48.148;-1.656;2023-02-15T20:32:12;18.60;76.50
26964;DHT22;14521;48.148;-1.656;2023-02-15T20:35:34;18.60;76.60
26964;DHT22;14521;48.148;-1.656;2023-02-15T20:38:58;18.50;76.70
26964;DHT22;14521;48.148;-1.656;2023-02-15T20:42:22;18.50;76.90
26964;DHT22;14521;48.148;-1.656;2023-02-15T20:45:46;18.50;76.90
26964;DHT22;14521;48.148;-1.656;2023-02-15T20:49:09;18.50;76.90
26964;DHT22;14521;48.148;-1.656;2023-02-15T20:52:31;18.50;76.90
26964;DHT22;14521;48.148;-1.656;2023-02-15T20:55:54;18.60;77.00
26964;DHT22;14521;48.148;-1.656;2023-02-15T20:59:29;18.50;76.90
26964;DHT22;14521;48.148;-1.656;2023-02-15T21:02:56;18.50;77.00
26964;DHT22;14521;48.148;-1.656;2023-02-15T21:06:19;18.50;77.00
26964;DHT22;14521;48.148;-1.656;2023-02-15T21:09:43;18.50;77.00
26964;DHT22;14521;48.148;-1.656;2023-02-15T21:13:08;18.50;77.00
26964;DHT22;14521;48.148;-1.656;2023-02-15T21:16:41;18.50;77.00
26964;DHT22;14521;48.148;-1.656;2023-02-15T21:20:03;18.40;77.10
26964;DHT22;14521;48.148;-1.656;2023-02-15T21:23:44;18.40;77.00
26964;DHT22;14521;48.148;-1.656;2023-02-15T21:27:11;18.40;77.00
26964;DHT22;14521;48.148;-1.656;2023-02-15T21:30:34;18.40;77.10
26964;DHT22;14521;48.148;-1.656;2023-02-15T21:33:56;18.40;77.00
26964;DHT22;14521;48.148;-1.656;2023-02-15T21:37:31;18.40;77.00
26964;DHT22;14521;48.148;-1.656;2023-02-15T21:40:53;18.40;77.00
26964;DHT22;14521;48.148;-1.656;2023-02-15T21:44:21;18.40;77.00
26964;DHT22;14521;48.148;-1.656;2023-02-15T21:48:02;18.40;77.10
26964;DHT22;14521;48.148;-1.656;2023-02-15T21:51:25;18.40;77.00
26964;DHT22;14521;48.148;-1.656;2023-02-15T21:55:12;18.30;77.00
26964;DHT22;14521;48.148;-1.656;2023-02-15T21:58:35;18.30;77.10
26964;DHT22;14521;48.148;-1.656;2023-02-15T22:01:58;18.30;77.10
26964;DHT22;14521;48.148;-1.656;2023-02-15T22:05:26;18.30;77.10
26964;DHT22;14521;48.148;-1.656;2023-02-15T22:08:49;18.30;77.00
26964;DHT22;14521;48.148;-1.656;2023-02-15T22:12:15;18.30;77.10
26964;DHT22;14521;48.148;-1.656;2023-02-15T22:15:38;18.30;77.30
26964;DHT22;14521;48.148;-1.656;2023-02-15T22:19:01;18.30;77.30
26964;DHT22;14521;48.148;-1.656;2023-02-15T22:22:23;18.30;77.30
26964;DHT22;14521;48.148;-1.656;2023-02-15T22:25:57;18.30;77.20
26964;DHT22;14521;48.148;-1.656;2023-02-15T22:29:20;18.20;77.10
26964;DHT22;14521;48.148;-1.656;2023-02-15T22:32:42;18.20;77.30
26964;DHT22;14521;48.148;-1.656;2023-02-15T22:36:05;18.20;77.40
26964;DHT22;14521;48.148;-1.656;2023-02-15T22:39:27;18.20;77.40
26964;DHT22;14521;48.148;-1.656;2023-02-15T22:42:51;18.20;77.40
26964;DHT22;14521;48.148;-1.656;2023-02-15T22:46:15;18.30;77.50
26964;DHT22;14521;48.148;-1.656;2023-02-15T22:49:38;18.30;77.50
26964;DHT22;14521;48.148;-1.656;2023-02-15T22:53:01;18.20;77.40
26964;DHT22;14521;48.148;-1.656;2023-02-15T22:56:35;18.30;77.50
26964;DHT22;14521;48.148;-1.656;2023-02-15T22:59:58;18.20;77.50
26964;DHT22;14521;48.148;-1.656;2023-02-15T23:03:26;18.20;77.60
26964;DHT22;14521;48.148;-1.656;2023-02-15T23:06:50;18.20;77.60
26964;DHT22;14521;48.148;-1.656;2023-02-15T23:10:15;18.20;77.60
26964;DHT22;14521;48.148;-1.656;2023-02-15T23:13:46;18.20;77.60
26964;DHT22;14521;48.148;-1.656;2023-02-15T23:17:09;18.20;77.60
26964;DHT22;14521;48.148;-1.656;2023-02-15T23:20:31;18.20;77.70
26964;DHT22;14521;48.148;-1.656;2023-02-15T23:23:56;18.20;77.70
26964;DHT22;14521;48.148;-1.656;2023-02-15T23:27:19;18.20;77.80
26964;DHT22;14521;48.148;-1.656;2023-02-15T23:31:00;18.20;77.80
26964;DHT22;14521;48.148;-1.656;2023-02-15T23:34:26;18.20;77.90
26964;DHT22;14521;48.148;-1.656;2023-02-15T23:37:50;18.10;77.70
26964;DHT22;14521;48.148;-1.656;2023-02-15T23:41:12;18.20;77.80
26964;DHT22;14521;48.148;-1.656;2023-02-15T23:44:42;18.10;77.90
26964;DHT22;14521;48.148;-1.656;2023-02-15T23:48:35;18.10;77.80
26964;DHT22;14521;48.148;-1.656;2023-02-15T23:51:58;18.20;77.90
26964;DHT22;14521;48.148;-1.656;2023-02-15T23:55:21;18.10;77.90
26964;DHT22;14521;48.148;-1.656;2023-02-15T23:58:45;18.10;77.90
